sensor_id;sensor_type;location;lat;lon;timestamp;temperature;humidity
4828;DHT22;2428;48.732;9.148;2023-02-28T00:00:26;-0.60;99.90
4828;DHT22;2428;48.732;9.148;2023-02-28T00:02:52;-0.60;99.90
4828;DHT22;2428;48.732;9.148;2023-02-28T00:05:20;-0.70;99.90
4828;DHT22;2428;48.732;9.148;2023-02-28T00:07:47;-0.60;99.90
4828;DHT22;2428;48.732;9.148;2023-02-28T00:10:16;-0.70;99.90
4828;DHT22;2428;48.732;9.148;2023-02-28T00:12:52;-0.70;99.90
4828;DHT22;2428;48.732;9.148;2023-02-28T00:15:18;-0.70;99.90
4828;DHT22;2428;48.732;9.148;2023-02-28T00:17:44;-0.80;99.90
4828;DHT22;2428;48.732;9.148;2023-02-28T00:20:11;-0.70;99.90
4828;DHT22;2428;48.732;9.148;2023-02-28T00:22:39;-0.80;99.90
4828;DHT22;2428;48.732;9.148;2023-02-28T00:25:06;-0.80;99.90
4828;DHT22;2428;48.732;9.148;2023-02-28T00:27:36;-0.80;99.90
4828;DHT22;2428;48.732;9.148;2023-02-28T00:30:02;-0.80;99.90
4828;DHT22;2428;48.732;9.148;2023-02-28T00:32:28;-0.80;99.90
4828;DHT22;2428;48.732;9.148;2023-02-28T00:34:53;-0.80;99.90
4828;DHT22;2428;48.732;9.148;2023-02-28T00:37:19;-0.90;99.90
4828;DHT22;2428;48.732;9.148;2023-02-28T00:39:45;-0.90;99.90
4828;DHT22;2428;48.732;9.148;2023-02-28T00:42:10;-0.90;99.90
4828;DHT22;2428;48.732;9.148;2023-02-28T00:44:36;-0.90;99.90
4828;DHT22;2428;48.732;9.148;2023-02-28T00:47:01;-0.90;99.90
4828;DHT22;2428;48.732;9.148;2023-02-28T00:49:28;-0.90;99.90
4828;DHT22;2428;48.732;9.148;2023-02-28T00:51:54;-0.90;99.90
4828;DHT22;2428;48.732;9.148;2023-02-28T00:54:21;-0.90;99.90
4828;DHT22;2428;48.732;9.148;2023-02-28T00:56:47;-0.90;99.90
4828;DHT22;2428;48.732;9.148;2023-02-28T00:59:14;-0.90;99.90
4828;DHT22;2428;48.732;9.148;2023-02-28T01:01:40;-1.00;99.90
4828;DHT22;2428;48.732;9.148;2023-02-28T01:04:06;-1.00;99.90
4828;DHT22;2428;48.732;9.148;2023-02-28T01:06:31;-1.00;99.90
4828;DHT22;2428;48.732;9.148;2023-02-28T01:08:58;-1.00;99.90
4828;DHT22;2428;48.732;9.148;2023-02-28T01:11:24;-1.00;99.90
4828;DHT22;2428;48.732;9.148;2023-02-28T01:13:50;-1.00;99.90
4828;DHT22;2428;48.732;9.148;2023-02-28T01:16:16;-1.00;99.90
4828;DHT22;2428;48.732;9.148;2023-02-28T01:18:41;-1.10;99.90
4828;DHT22;2428;48.732;9.148;2023-02-28T01:21:11;-1.10;99.90
4828;DHT22;2428;48.732;9.148;2023-02-28T01:23:38;-1.10;99.90
4828;DHT22;2428;48.732;9.148;2023-02-28T01:26:08;-1.00;99.90
4828;DHT22;2428;48.732;9.148;2023-02-28T01:28:34;-1.10;99.90
4828;DHT22;2428;48.732;9.148;2023-02-28T01:31:00;-1.10;99.90
4828;DHT22;2428;48.732;9.148;2023-02-28T01:33:26;-1.10;99.90
4828;DHT22;2428;48.732;9.148;2023-02-28T01:36:02;-1.10;99.90
4828;DHT22;2428;48.732;9.148;2023-02-28T01:38:29;-1.20;99.90
4828;DHT22;2428;48.732;9.148;2023-02-28T01:40:55;-1.20;99.90
4828;DHT22;2428;48.732;9.148;2023-02-28T01:43:51;-1.10;99.90
4828;DHT22;2428;48.732;9.148;2023-02-28T01:46:11;-1.20;99.90
4828;DHT22;2428;48.732;9.148;2023-02-28T01:48:53;-1.20;99.90
4828;DHT22;2428;48.732;9.148;2023-02-28T01:51:37;-1.20;99.90
4828;DHT22;2428;48.732;9.148;2023-02-28T01:54:08;-1.30;99.90
4828;DHT22;2428;48.732;9.148;2023-02-28T01:56:42;-1.30;99.90
4828;DHT22;2428;48.732;9.148;2023-02-28T01:59:09;-1.30;99.90
4828;DHT22;2428;48.732;9.148;2023-02-28T02:01:35;-1.30;99.90
4828;DHT22;2428;48.732;9.148;2023-02-28T02:04:02;-1.30;99.90
4828;DHT22;2428;48.732;9.148;2023-02-28T02:06:39;-1.30;99.90
4828;DHT22;2428;48.732;9.148;2023-02-28T02:09:05;-1.30;99.90
4828;DHT22;2428;48.732;9.148;2023-02-28T02:11:31;-1.30;99.90
4828;DHT22;2428;48.732;9.148;2023-02-28T02:28:55;-1.40;99.90
4828;DHT22;2428;48.732;9.148;2023-02-28T02:32:19;-1.40;99.90
4828;DHT22;2428;48.732;9.148;2023-02-28T02:37:38;-1.30;99.90
4828;DHT22;2428;48.732;9.148;2023-02-28T02:40:10;-1.30;99.90
4828;DHT22;2428;48.732;9.148;2023-02-28T02:42:52;-1.40;99.90
4828;DHT22;2428;48.732;9.148;2023-02-28T02:45:26;-1.40;99.90
4828;DHT22;2428;48.732;9.148;2023-02-28T02:47:53;-1.40;99.90
4828;DHT22;2428;48.732;9.148;2023-02-28T02:50:25;-1.40;99.90
4828;DHT22;2428;48.732;9.148;2023-02-28T02:52:56;-1.40;99.90
4828;DHT22;2428;48.732;9.148;2023-02-28T02:55:23;-1.40;99.90
4828;DHT22;2428;48.732;9.148;2023-02-28T02:57:56;-1.40;99.90
4828;DHT22;2428;48.732;9.148;2023-02-28T03:00:29;-1.40;99.90
4828;DHT22;2428;48.732;9.148;2023-02-28T03:02:56;-1.40;99.90
4828;DHT22;2428;48.732;9.148;2023-02-28T03:05:31;-1.40;99.90
4828;DHT22;2428;48.732;9.148;2023-02-28T03:07:59;-1.30;99.90
4828;DHT22;2428;48.732;9.148;2023-02-28T03:10:38;-1.40;99.90
4828;DHT22;2428;48.732;9.148;2023-02-28T03:13:48;-1.30;99.90
4828;DHT22;2428;48.732;9.148;2023-02-28T03:16:34;-1.30;99.90
4828;DHT22;2428;48.732;9.148;2023-02-28T03:27:42;-1.30;99.90
4828;DHT22;2428;48.732;9.148;2023-02-28T03:30:26;-1.30;99.90
4828;DHT22;2428;48.732;9.148;2023-02-28T03:32:58;-1.30;99.90
4828;DHT22;2428;48.732;9.148;2023-02-28T03:35:36;-1.30;99.90
4828;DHT22;2428;48.732;9.148;2023-02-28T03:38:14;-1.30;99.90
4828;DHT22;2428;48.732;9.148;2023-02-28T03:40:48;-1.40;99.90
4828;DHT22;2428;48.732;9.148;2023-02-28T03:43:22;-1.30;99.90
4828;DHT22;2428;48.732;9.148;2023-02-28T03:45:50;-1.30;99.90
4828;DHT22;2428;48.732;9.148;2023-02-28T03:48:23;-1.30;99.90
4828;DHT22;2428;48.732;9.148;2023-02-28T03:50:54;-1.30;99.90
4828;DHT22;2428;48.732;9.148;2023-02-28T03:53:31;-1.40;99.90
4828;DHT22;2428;48.732;9.148;2023-02-28T03:56:19;-1.30;99.90
4828;DHT22;2428;48.732;9.148;2023-02-28T03:59:06;-1.30;99.90
4828;DHT22;2428;48.732;9.148;2023-02-28T04:01:40;-1.30;99.90
4828;DHT22;2428;48.732;9.148;2023-02-28T04:04:10;-1.20;99.90
4828;DHT22;2428;48.732;9.148;2023-02-28T04:06:37;-1.30;99.90
4828;DHT22;2428;48.732;9.148;2023-02-28T04:09:03;-1.20;99.90
4828;DHT22;2428;48.732;9.148;2023-02-28T04:11:53;-1.20;99.90
4828;DHT22;2428;48.732;9.148;2023-02-28T04:14:18;-1.20;99.90
4828;DHT22;2428;48.732;9.148;2023-02-28T04:16:44;-1.20;99.90
4828;DHT22;2428;48.732;9.148;2023-02-28T04:19:12;-1.20;99.90
4828;DHT22;2428;48.732;9.148;2023-02-28T04:21:43;-1.20;99.90
4828;DHT22;2428;48.732;9.148;2023-02-28T04:24:12;-1.20;99.90
4828;DHT22;2428;48.732;9.148;2023-02-28T04:26:41;-1.10;99.90
4828;DHT22;2428;48.732;9.148;2023-02-28T04:29:10;-1.20;99.90
4828;DHT22;2428;48.732;9.148;2023-02-28T04:31:36;-1.10;99.90
4828;DHT22;2428;48.732;9.148;2023-02-28T04:34:02;-1.10;99.90
4828;DHT22;2428;48.732;9.148;2023-02-28T04:36:27;-1.10;99.90
4828;DHT22;2428;48.732;9.148;2023-02-28T04:38:53;-1.10;99.90
4828;DHT22;2428;48.732;9.148;2023-02-28T04:41:20;-1.10;99.90
4828;DHT22;2428;48.732;9.148;2023-02-28T04:43:46;-1.10;99.90
4828;DHT22;2428;48.732;9.148;2023-02-28T04:46:11;-1.00;99.90
4828;DHT22;2428;48.732;9.148;2023-02-28T04:48:38;-1.00;99.90
4828;DHT22;2428;48.732;9.148;2023-02-28T04:53:31;-1.10;99.90
4828;DHT22;2428;48.732;9.148;2023-02-28T04:55:57;-1.00;99.90
4828;DHT22;2428;48.732;9.148;2023-02-28T04:58:23;-1.00;99.90
4828;DHT22;2428;48.732;9.148;2023-02-28T05:00:53;-1.00;99.90
4828;DHT22;2428;48.732;9.148;2023-02-28T05:03:19;-1.00;99.90
4828;DHT22;2428;48.732;9.148;2023-02-28T05:05:46;-1.00;99.90
4828;DHT22;2428;48.732;9.148;2023-02-28T05:08:12;-1.00;99.90
4828;DHT22;2428;48.732;9.148;2023-02-28T05:10:37;-1.00;99.90
4828;DHT22;2428;48.732;9.148;2023-02-28T05:13:03;-0.90;99.90
4828;DHT22;2428;48.732;9.148;2023-02-28T05:15:29;-1.00;99.90
4828;DHT22;2428;48.732;9.148;2023-02-28T05:17:54;-1.00;99.90
4828;DHT22;2428;48.732;9.148;2023-02-28T05:20:20;-0.90;99.90
4828;DHT22;2428;48.732;9.148;2023-02-28T05:22:46;-1.00;99.90
4828;DHT22;2428;48.732;9.148;2023-02-28T05:25:20;-1.00;99.90
4828;DHT22;2428;48.732;9.148;2023-02-28T05:27:47;-0.90;99.90
4828;DHT22;2428;48.732;9.148;2023-02-28T05:30:13;-0.90;99.90
4828;DHT22;2428;48.732;9.148;2023-02-28T05:32:39;-0.90;99.90
4828;DHT22;2428;48.732;9.148;2023-02-28T05:35:11;-0.90;99.90
4828;DHT22;2428;48.732;9.148;2023-02-28T05:37:38;-0.90;99.90
4828;DHT22;2428;48.732;9.148;2023-02-28T05:40:05;-0.90;99.90
4828;DHT22;2428;48.732;9.148;2023-02-28T05:42:36;-0.90;99.90
4828;DHT22;2428;48.732;9.148;2023-02-28T05:45:03;-0.90;99.90
4828;DHT22;2428;48.732;9.148;2023-02-28T05:47:29;-0.90;99.90
4828;DHT22;2428;48.732;9.148;2023-02-28T05:49:54;-1.00;99.90
4828;DHT22;2428;48.732;9.148;2023-02-28T05:52:20;-0.90;99.90
4828;DHT22;2428;48.732;9.148;2023-02-28T05:54:46;-1.00;99.90
4828;DHT22;2428;48.732;9.148;2023-02-28T05:57:12;-0.90;99.90
4828;DHT22;2428;48.732;9.148;2023-02-28T05:59:38;-0.90;99.90
4828;DHT22;2428;48.732;9.148;2023-02-28T06:02:06;-0.90;99.90
4828;DHT22;2428;48.732;9.148;2023-02-28T06:04:32;-0.90;99.90
4828;DHT22;2428;48.732;9.148;2023-02-28T06:06:57;-0.90;99.90
4828;DHT22;2428;48.732;9.148;2023-02-28T06:09:23;-0.90;99.90
4828;DHT22;2428;48.732;9.148;2023-02-28T06:11:49;-0.90;99.90
4828;DHT22;2428;48.732;9.148;2023-02-28T06:14:16;-0.80;99.90
4828;DHT22;2428;48.732;9.148;2023-02-28T06:16:42;-0.90;99.90
4828;DHT22;2428;48.732;9.148;2023-02-28T06:19:09;-0.90;99.90
4828;DHT22;2428;48.732;9.148;2023-02-28T06:21:35;-0.90;99.90
4828;DHT22;2428;48.732;9.148;2023-02-28T06:24:01;-0.90;99.90
4828;DHT22;2428;48.732;9.148;2023-02-28T06:26:27;-0.90;99.90
4828;DHT22;2428;48.732;9.148;2023-02-28T06:28:53;-0.90;99.90
4828;DHT22;2428;48.732;9.148;2023-02-28T06:31:19;-0.80;99.90
4828;DHT22;2428;48.732;9.148;2023-02-28T06:33:46;-0.90;99.90
4828;DHT22;2428;48.732;9.148;2023-02-28T06:36:13;-0.90;99.90
4828;DHT22;2428;48.732;9.148;2023-02-28T06:38:39;-0.80;99.90
4828;DHT22;2428;48.732;9.148;2023-02-28T06:41:05;-0.80;99.90
4828;DHT22;2428;48.732;9.148;2023-02-28T06:43:35;-0.80;99.90
4828;DHT22;2428;48.732;9.148;2023-02-28T06:46:03;-0.80;99.90
4828;DHT22;2428;48.732;9.148;2023-02-28T06:48:28;-0.80;99.90
4828;DHT22;2428;48.732;9.148;2023-02-28T06:51:08;-0.80;99.90
4828;DHT22;2428;48.732;9.148;2023-02-28T06:53:34;-0.70;99.90
4828;DHT22;2428;48.732;9.148;2023-02-28T06:55:59;-0.80;99.90
4828;DHT22;2428;48.732;9.148;2023-02-28T06:58:29;-0.70;99.90
4828;DHT22;2428;48.732;9.148;2023-02-28T07:00:54;-0.70;99.90
4828;DHT22;2428;48.732;9.148;2023-02-28T07:03:21;-0.70;99.90
4828;DHT22;2428;48.732;9.148;2023-02-28T07:05:47;-0.70;99.90
4828;DHT22;2428;48.732;9.148;2023-02-28T07:08:12;-0.60;99.90
4828;DHT22;2428;48.732;9.148;2023-02-28T07:10:38;-0.50;99.90
4828;DHT22;2428;48.732;9.148;2023-02-28T07:13:05;-0.60;99.90
4828;DHT22;2428;48.732;9.148;2023-02-28T07:15:31;-0.60;99.90
4828;DHT22;2428;48.732;9.148;2023-02-28T07:17:57;-0.50;99.90
4828;DHT22;2428;48.732;9.148;2023-02-28T07:20:23;-0.60;99.90
4828;DHT22;2428;48.732;9.148;2023-02-28T07:22:50;-0.60;99.90
4828;DHT22;2428;48.732;9.148;2023-02-28T07:25:23;-0.50;99.90
4828;DHT22;2428;48.732;9.148;2023-02-28T07:27:48;-0.50;99.90
4828;DHT22;2428;48.732;9.148;2023-02-28T07:30:14;-0.50;99.90
4828;DHT22;2428;48.732;9.148;2023-02-28T07:32:40;-0.40;99.90
4828;DHT22;2428;48.732;9.148;2023-02-28T07:35:06;-0.30;99.90
4828;DHT22;2428;48.732;9.148;2023-02-28T07:37:31;-0.30;99.90
4828;DHT22;2428;48.732;9.148;2023-02-28T07:40:05;-0.40;99.90
4828;DHT22;2428;48.732;9.148;2023-02-28T07:42:35;-0.40;99.90
4828;DHT22;2428;48.732;9.148;2023-02-28T07:45:01;-0.40;99.90
4828;DHT22;2428;48.732;9.148;2023-02-28T07:47:29;-0.30;99.90
4828;DHT22;2428;48.732;9.148;2023-02-28T07:49:55;-0.30;99.90
4828;DHT22;2428;48.732;9.148;2023-02-28T07:52:20;-0.30;99.90
4828;DHT22;2428;48.732;9.148;2023-02-28T07:54:46;-0.30;99.90
4828;DHT22;2428;48.732;9.148;2023-02-28T07:57:11;-0.20;99.90
4828;DHT22;2428;48.732;9.148;2023-02-28T07:59:37;-0.20;99.90
4828;DHT22;2428;48.732;9.148;2023-02-28T08:02:03;-0.20;99.90
4828;DHT22;2428;48.732;9.148;2023-02-28T08:04:32;-0.20;99.90
4828;DHT22;2428;48.732;9.148;2023-02-28T08:06:57;-0.20;99.90
4828;DHT22;2428;48.732;9.148;2023-02-28T08:09:23;-0.30;99.90
4828;DHT22;2428;48.732;9.148;2023-02-28T08:11:49;-0.30;99.90
4828;DHT22;2428;48.732;9.148;2023-02-28T08:14:15;-0.30;99.90
4828;DHT22;2428;48.732;9.148;2023-02-28T08:16:40;-0.30;99.90
4828;DHT22;2428;48.732;9.148;2023-02-28T08:19:08;-0.30;99.90
4828;DHT22;2428;48.732;9.148;2023-02-28T08:21:34;-0.20;99.90
4828;DHT22;2428;48.732;9.148;2023-02-28T08:23:59;-0.20;99.90
4828;DHT22;2428;48.732;9.148;2023-02-28T08:26:25;-0.20;99.90
4828;DHT22;2428;48.732;9.148;2023-02-28T08:28:51;-0.20;99.90
4828;DHT22;2428;48.732;9.148;2023-02-28T08:31:17;-0.20;99.90
4828;DHT22;2428;48.732;9.148;2023-02-28T08:33:43;-0.20;99.90
4828;DHT22;2428;48.732;9.148;2023-02-28T08:36:10;-0.10;99.90
4828;DHT22;2428;48.732;9.148;2023-02-28T08:38:36;-0.10;99.90
4828;DHT22;2428;48.732;9.148;2023-02-28T08:41:05;-0.10;99.90
4828;DHT22;2428;48.732;9.148;2023-02-28T08:43:33;-0.10;99.90
4828;DHT22;2428;48.732;9.148;2023-02-28T08:45:59;0.00;99.90
4828;DHT22;2428;48.732;9.148;2023-02-28T08:48:29;0.10;99.90
4828;DHT22;2428;48.732;9.148;2023-02-28T08:51:00;0.00;99.90
4828;DHT22;2428;48.732;9.148;2023-02-28T08:53:26;0.00;99.90
4828;DHT22;2428;48.732;9.148;2023-02-28T08:56:00;0.10;99.90
4828;DHT22;2428;48.732;9.148;2023-02-28T08:58:26;0.10;99.90
4828;DHT22;2428;48.732;9.148;2023-02-28T09:00:52;0.10;99.90
4828;DHT22;2428;48.732;9.148;2023-02-28T09:03:18;0.10;99.90
4828;DHT22;2428;48.732;9.148;2023-02-28T09:05:57;0.00;99.90
4828;DHT22;2428;48.732;9.148;2023-02-28T09:08:25;0.00;99.90
4828;DHT22;2428;48.732;9.148;2023-02-28T09:10:51;0.10;99.90
4828;DHT22;2428;48.732;9.148;2023-02-28T09:13:17;0.10;99.90
4828;DHT22;2428;48.732;9.148;2023-02-28T09:15:43;0.10;99.90
4828;DHT22;2428;48.732;9.148;2023-02-28T09:18:09;0.10;99.90
4828;DHT22;2428;48.732;9.148;2023-02-28T09:20:38;0.20;99.90
4828;DHT22;2428;48.732;9.148;2023-02-28T09:23:04;0.20;99.90
4828;DHT22;2428;48.732;9.148;2023-02-28T09:25:29;0.20;99.90
4828;DHT22;2428;48.732;9.148;2023-02-28T09:27:55;0.20;99.90
4828;DHT22;2428;48.732;9.148;2023-02-28T09:30:20;0.20;99.90
4828;DHT22;2428;48.732;9.148;2023-02-28T09:32:46;0.20;99.90
4828;DHT22;2428;48.732;9.148;2023-02-28T09:35:18;0.20;99.90
4828;DHT22;2428;48.732;9.148;2023-02-28T09:37:44;0.20;99.90
4828;DHT22;2428;48.732;9.148;2023-02-28T09:40:10;0.20;99.90
4828;DHT22;2428;48.732;9.148;2023-02-28T09:42:37;0.10;99.90
4828;DHT22;2428;48.732;9.148;2023-02-28T09:45:11;0.20;99.90
4828;DHT22;2428;48.732;9.148;2023-02-28T09:47:44;0.30;99.90
4828;DHT22;2428;48.732;9.148;2023-02-28T09:52:55;0.30;99.90
4828;DHT22;2428;48.732;9.148;2023-02-28T09:55:43;0.30;99.90
4828;DHT22;2428;48.732;9.148;2023-02-28T09:58:38;0.30;99.90
4828;DHT22;2428;48.732;9.148;2023-02-28T10:01:12;0.40;99.90
4828;DHT22;2428;48.732;9.148;2023-02-28T10:06:44;0.40;99.90
4828;DHT22;2428;48.732;9.148;2023-02-28T10:09:31;0.50;99.90
4828;DHT22;2428;48.732;9.148;2023-02-28T10:12:05;0.50;99.90
4828;DHT22;2428;48.732;9.148;2023-02-28T10:14:34;0.50;99.90
4828;DHT22;2428;48.732;9.148;2023-02-28T10:17:19;0.60;99.90
4828;DHT22;2428;48.732;9.148;2023-02-28T10:22:34;0.70;99.90
4828;DHT22;2428;48.732;9.148;2023-02-28T10:25:15;0.80;99.90
4828;DHT22;2428;48.732;9.148;2023-02-28T10:27:41;0.80;99.90
4828;DHT22;2428;48.732;9.148;2023-02-28T10:30:10;0.90;99.90
4828;DHT22;2428;48.732;9.148;2023-02-28T10:32:38;0.90;99.90
4828;DHT22;2428;48.732;9.148;2023-02-28T10:37:45;1.00;99.90
4828;DHT22;2428;48.732;9.148;2023-02-28T10:40:35;1.10;99.90
4828;DHT22;2428;48.732;9.148;2023-02-28T10:43:05;1.20;99.90
4828;DHT22;2428;48.732;9.148;2023-02-28T10:45:40;1.30;99.90
4828;DHT22;2428;48.732;9.148;2023-02-28T10:58:50;1.70;99.90
4828;DHT22;2428;48.732;9.148;2023-02-28T11:03:46;1.70;99.90
4828;DHT22;2428;48.732;9.148;2023-02-28T11:06:27;1.80;99.90
4828;DHT22;2428;48.732;9.148;2023-02-28T11:08:59;1.80;99.90
4828;DHT22;2428;48.732;9.148;2023-02-28T11:11:28;1.90;99.90
4828;DHT22;2428;48.732;9.148;2023-02-28T11:13:56;2.00;99.90
4828;DHT22;2428;48.732;9.148;2023-02-28T11:16:32;1.90;99.90
4828;DHT22;2428;48.732;9.148;2023-02-28T11:18:58;2.00;99.90
4828;DHT22;2428;48.732;9.148;2023-02-28T11:21:28;2.10;99.90
4828;DHT22;2428;48.732;9.148;2023-02-28T11:24:03;2.10;99.90
4828;DHT22;2428;48.732;9.148;2023-02-28T11:26:42;2.10;99.90
4828;DHT22;2428;48.732;9.148;2023-02-28T11:29:21;2.20;99.90
4828;DHT22;2428;48.732;9.148;2023-02-28T11:32:16;2.10;99.90
4828;DHT22;2428;48.732;9.148;2023-02-28T11:34:43;2.30;99.90
4828;DHT22;2428;48.732;9.148;2023-02-28T11:37:15;2.40;99.90
4828;DHT22;2428;48.732;9.148;2023-02-28T11:39:42;2.50;99.90
4828;DHT22;2428;48.732;9.148;2023-02-28T11:47:54;2.40;99.90
4828;DHT22;2428;48.732;9.148;2023-02-28T11:56:28;2.40;99.90
4828;DHT22;2428;48.732;9.148;2023-02-28T11:59:12;2.40;99.90
4828;DHT22;2428;48.732;9.148;2023-02-28T12:05:11;2.30;99.90
4828;DHT22;2428;48.732;9.148;2023-02-28T12:07:58;2.20;99.90
4828;DHT22;2428;48.732;9.148;2023-02-28T12:10:29;2.40;99.90
4828;DHT22;2428;48.732;9.148;2023-02-28T12:28:59;3.10;99.90
4828;DHT22;2428;48.732;9.148;2023-02-28T12:31:30;3.30;99.90
4828;DHT22;2428;48.732;9.148;2023-02-28T12:34:03;3.30;99.90
4828;DHT22;2428;48.732;9.148;2023-02-28T12:36:30;3.30;99.90
4828;DHT22;2428;48.732;9.148;2023-02-28T12:42:03;3.30;99.90
4828;DHT22;2428;48.732;9.148;2023-02-28T12:44:35;3.30;99.90
4828;DHT22;2428;48.732;9.148;2023-02-28T12:47:08;3.40;99.90
4828;DHT22;2428;48.732;9.148;2023-02-28T12:49:43;3.40;99.90
4828;DHT22;2428;48.732;9.148;2023-02-28T12:52:13;3.40;99.90
4828;DHT22;2428;48.732;9.148;2023-02-28T12:57:38;3.50;99.90
4828;DHT22;2428;48.732;9.148;2023-02-28T13:00:11;3.50;99.90
4828;DHT22;2428;48.732;9.148;2023-02-28T13:02:44;3.40;99.90
4828;DHT22;2428;48.732;9.148;2023-02-28T13:10:50;3.50;99.90
4828;DHT22;2428;48.732;9.148;2023-02-28T13:13:25;3.50;99.90
4828;DHT22;2428;48.732;9.148;2023-02-28T13:16:08;3.50;99.90
4828;DHT22;2428;48.732;9.148;2023-02-28T13:18:36;3.50;99.90
4828;DHT22;2428;48.732;9.148;2023-02-28T13:21:04;3.50;99.90
4828;DHT22;2428;48.732;9.148;2023-02-28T13:26:17;3.40;99.90
4828;DHT22;2428;48.732;9.148;2023-02-28T13:31:19;3.50;99.90
4828;DHT22;2428;48.732;9.148;2023-02-28T13:36:29;3.40;99.90
4828;DHT22;2428;48.732;9.148;2023-02-28T13:38:57;3.50;99.90
4828;DHT22;2428;48.732;9.148;2023-02-28T13:44:05;3.60;99.90
4828;DHT22;2428;48.732;9.148;2023-02-28T13:49:28;3.70;99.90
4828;DHT22;2428;48.732;9.148;2023-02-28T13:54:56;3.80;99.90
4828;DHT22;2428;48.732;9.148;2023-02-28T14:01:08;3.80;99.90
4828;DHT22;2428;48.732;9.148;2023-02-28T14:11:30;3.90;99.90
4828;DHT22;2428;48.732;9.148;2023-02-28T14:13:57;4.00;99.90
4828;DHT22;2428;48.732;9.148;2023-02-28T14:16:24;4.10;99.90
4828;DHT22;2428;48.732;9.148;2023-02-28T14:18:58;4.20;99.90
4828;DHT22;2428;48.732;9.148;2023-02-28T14:21:31;4.20;99.90
4828;DHT22;2428;48.732;9.148;2023-02-28T14:33:24;4.30;99.90
4828;DHT22;2428;48.732;9.148;2023-02-28T14:36:17;4.20;99.90
4828;DHT22;2428;48.732;9.148;2023-02-28T14:38:59;4.30;99.90
4828;DHT22;2428;48.732;9.148;2023-02-28T14:41:30;4.30;99.90
4828;DHT22;2428;48.732;9.148;2023-02-28T14:43:59;4.30;99.90
4828;DHT22;2428;48.732;9.148;2023-02-28T14:46:33;4.20;99.90
4828;DHT22;2428;48.732;9.148;2023-02-28T14:49:01;4.20;99.90
4828;DHT22;2428;48.732;9.148;2023-02-28T14:51:26;4.20;99.90
4828;DHT22;2428;48.732;9.148;2023-02-28T14:53:58;4.20;99.90
4828;DHT22;2428;48.732;9.148;2023-02-28T14:56:28;4.30;99.90
4828;DHT22;2428;48.732;9.148;2023-02-28T14:58:56;4.30;99.90
4828;DHT22;2428;48.732;9.148;2023-02-28T15:01:23;4.40;99.90
4828;DHT22;2428;48.732;9.148;2023-02-28T15:04:04;4.40;99.90
4828;DHT22;2428;48.732;9.148;2023-02-28T15:06:31;4.40;99.90
4828;DHT22;2428;48.732;9.148;2023-02-28T15:09:16;4.50;99.90
4828;DHT22;2428;48.732;9.148;2023-02-28T15:11:47;4.50;99.90
4828;DHT22;2428;48.732;9.148;2023-02-28T15:14:19;4.60;99.90
4828;DHT22;2428;48.732;9.148;2023-02-28T15:16:57;4.60;99.90
4828;DHT22;2428;48.732;9.148;2023-02-28T15:19:32;4.60;99.90
4828;DHT22;2428;48.732;9.148;2023-02-28T15:22:06;4.70;99.90
4828;DHT22;2428;48.732;9.148;2023-02-28T15:24:38;4.80;99.90
4828;DHT22;2428;48.732;9.148;2023-02-28T15:27:23;4.90;99.90
4828;DHT22;2428;48.732;9.148;2023-02-28T15:29:56;4.90;99.90
4828;DHT22;2428;48.732;9.148;2023-02-28T15:32:31;4.80;99.90
4828;DHT22;2428;48.732;9.148;2023-02-28T15:34:58;4.70;99.90
4828;DHT22;2428;48.732;9.148;2023-02-28T15:37:46;4.70;99.90
4828;DHT22;2428;48.732;9.148;2023-02-28T15:40:23;4.60;99.90
4828;DHT22;2428;48.732;9.148;2023-02-28T15:43:19;4.50;99.90
4828;DHT22;2428;48.732;9.148;2023-02-28T15:46:09;4.50;99.90
4828;DHT22;2428;48.732;9.148;2023-02-28T15:48:54;4.50;99.90
4828;DHT22;2428;48.732;9.148;2023-02-28T15:51:24;4.50;99.90
4828;DHT22;2428;48.732;9.148;2023-02-28T15:54:01;4.40;99.90
4828;DHT22;2428;48.732;9.148;2023-02-28T15:56:33;4.30;99.90
4828;DHT22;2428;48.732;9.148;2023-02-28T15:59:06;4.30;99.90
4828;DHT22;2428;48.732;9.148;2023-02-28T16:01:38;4.30;99.90
4828;DHT22;2428;48.732;9.148;2023-02-28T16:04:07;4.30;99.90
4828;DHT22;2428;48.732;9.148;2023-02-28T16:07:01;4.20;99.90
4828;DHT22;2428;48.732;9.148;2023-02-28T16:09:27;4.20;99.90
4828;DHT22;2428;48.732;9.148;2023-02-28T16:11:56;4.10;99.90
4828;DHT22;2428;48.732;9.148;2023-02-28T16:14:25;4.10;99.90
4828;DHT22;2428;48.732;9.148;2023-02-28T16:16:55;4.00;99.90
4828;DHT22;2428;48.732;9.148;2023-02-28T16:19:22;4.00;99.90
4828;DHT22;2428;48.732;9.148;2023-02-28T16:21:48;3.90;99.90
4828;DHT22;2428;48.732;9.148;2023-02-28T16:24:14;3.90;99.90
4828;DHT22;2428;48.732;9.148;2023-02-28T16:26:41;3.90;99.90
4828;DHT22;2428;48.732;9.148;2023-02-28T16:29:08;3.90;99.90
4828;DHT22;2428;48.732;9.148;2023-02-28T16:31:37;3.90;99.90
4828;DHT22;2428;48.732;9.148;2023-02-28T16:34:04;4.00;99.90
4828;DHT22;2428;48.732;9.148;2023-02-28T16:36:30;3.90;99.90
4828;DHT22;2428;48.732;9.148;2023-02-28T16:38:55;3.90;99.90
4828;DHT22;2428;48.732;9.148;2023-02-28T16:41:24;3.90;99.90
4828;DHT22;2428;48.732;9.148;2023-02-28T16:43:53;3.80;99.90
4828;DHT22;2428;48.732;9.148;2023-02-28T16:46:20;3.80;99.90
4828;DHT22;2428;48.732;9.148;2023-02-28T16:48:46;3.80;99.90
4828;DHT22;2428;48.732;9.148;2023-02-28T16:51:15;3.70;99.90
4828;DHT22;2428;48.732;9.148;2023-02-28T16:53:42;3.70;99.90
4828;DHT22;2428;48.732;9.148;2023-02-28T16:56:20;3.60;99.90
4828;DHT22;2428;48.732;9.148;2023-02-28T16:58:47;3.50;99.90
4828;DHT22;2428;48.732;9.148;2023-02-28T17:01:13;3.50;99.90
4828;DHT22;2428;48.732;9.148;2023-02-28T17:03:39;3.50;99.90
4828;DHT22;2428;48.732;9.148;2023-02-28T17:06:08;3.40;99.90
4828;DHT22;2428;48.732;9.148;2023-02-28T17:08:37;3.40;99.90
4828;DHT22;2428;48.732;9.148;2023-02-28T17:11:03;3.30;99.90
4828;DHT22;2428;48.732;9.148;2023-02-28T17:13:29;3.30;99.90
4828;DHT22;2428;48.732;9.148;2023-02-28T17:15:55;3.30;99.90
4828;DHT22;2428;48.732;9.148;2023-02-28T17:18:21;3.30;99.90
4828;DHT22;2428;48.732;9.148;2023-02-28T17:20:47;3.20;99.90
4828;DHT22;2428;48.732;9.148;2023-02-28T17:23:13;3.20;99.90
4828;DHT22;2428;48.732;9.148;2023-02-28T17:25:39;3.10;99.90
4828;DHT22;2428;48.732;9.148;2023-02-28T17:28:05;3.10;99.90
4828;DHT22;2428;48.732;9.148;2023-02-28T17:30:31;3.10;99.90
4828;DHT22;2428;48.732;9.148;2023-02-28T17:32:58;3.10;99.90
4828;DHT22;2428;48.732;9.148;2023-02-28T17:35:24;3.00;99.90
4828;DHT22;2428;48.732;9.148;2023-02-28T17:37:52;3.00;99.90
4828;DHT22;2428;48.732;9.148;2023-02-28T17:40:20;2.90;99.90
4828;DHT22;2428;48.732;9.148;2023-02-28T17:42:45;2.90;99.90
4828;DHT22;2428;48.732;9.148;2023-02-28T17:45:13;2.90;99.90
4828;DHT22;2428;48.732;9.148;2023-02-28T17:47:39;2.80;99.90
4828;DHT22;2428;48.732;9.148;2023-02-28T17:50:05;2.90;99.90
4828;DHT22;2428;48.732;9.148;2023-02-28T17:52:31;2.90;99.90
4828;DHT22;2428;48.732;9.148;2023-02-28T17:55:02;2.90;99.90
4828;DHT22;2428;48.732;9.148;2023-02-28T17:57:28;2.80;99.90
4828;DHT22;2428;48.732;9.148;2023-02-28T17:59:53;2.80;99.90
4828;DHT22;2428;48.732;9.148;2023-02-28T18:02:19;2.70;99.90
4828;DHT22;2428;48.732;9.148;2023-02-28T18:04:44;2.70;99.90
4828;DHT22;2428;48.732;9.148;2023-02-28T18:07:11;2.70;99.90
4828;DHT22;2428;48.732;9.148;2023-02-28T18:09:37;2.60;99.90
4828;DHT22;2428;48.732;9.148;2023-02-28T18:12:03;2.60;99.90
4828;DHT22;2428;48.732;9.148;2023-02-28T18:14:29;2.60;99.90
4828;DHT22;2428;48.732;9.148;2023-02-28T18:16:55;2.70;99.90
4828;DHT22;2428;48.732;9.148;2023-02-28T18:19:22;2.70;99.90
4828;DHT22;2428;48.732;9.148;2023-02-28T18:21:50;2.80;99.90
4828;DHT22;2428;48.732;9.148;2023-02-28T18:24:18;2.80;99.90
4828;DHT22;2428;48.732;9.148;2023-02-28T18:26:44;2.80;99.90
4828;DHT22;2428;48.732;9.148;2023-02-28T18:29:23;2.80;99.90
4828;DHT22;2428;48.732;9.148;2023-02-28T18:31:49;2.80;99.90
4828;DHT22;2428;48.732;9.148;2023-02-28T18:34:15;2.80;99.90
4828;DHT22;2428;48.732;9.148;2023-02-28T18:36:41;2.70;99.90
4828;DHT22;2428;48.732;9.148;2023-02-28T18:39:07;2.70;99.90